Time;durP1;ratioP1;P1;durP2;ratioP2;P2;SDS_P1;SDS_P2;PMS_P1;PMS_P2;Temp;Humidity;BMP_temperature;BMP_pressure;BME280_temperature;BME280_humidity;BME280_pressure;Samples;Min_cycle;Max_cycle;Signal;HPM_P1;HPM_P2
2021/05/24 00:02:17;;;;;;;10.25;8.90;;;;;;;;;;5016258;28;20117;-73
2021/05/24 00:04:43;;;;;;;11.07;8.73;;;;;;;;;;5016085;28;20055;-71
2021/05/24 00:07:09;;;;;;;8.77;7.88;;;;;;;;;;5016349;28;20018;-72
2021/05/24 00:09:35;;;;;;;10.40;7.28;;;;;;;;;;5016176;28;20018;-73
2021/05/24 00:12:02;;;;;;;8.88;7.88;;;;;;;;;;5015978;28;20441;-73
2021/05/24 00:14:29;;;;;;;9.52;7.80;;;;;;;;;;5016339;28;20353;-72
2021/05/24 00:16:55;;;;;;;8.60;7.72;;;;;;;;;;5016613;28;20080;-72
2021/05/24 00:19:21;;;;;;;9.45;8.07;;;;;;;;;;5016199;28;20022;-72
2021/05/24 00:21:47;;;;;;;8.93;7.95;;;;;;;;;;5015738;28;20400;-72
2021/05/24 00:24:13;;;;;;;8.10;6.75;;;;;;;;;;5015427;28;20026;-73
2021/05/24 00:26:39;;;;;;;10.98;8.15;;;;;;;;;;5015821;28;20030;-72
2021/05/24 00:29:05;;;;;;;8.13;7.32;;;;;;;;;;5016229;28;20026;-73
2021/05/24 00:31:31;;;;;;;8.68;7.63;;;;;;;;;;5015557;28;20032;-73
2021/05/24 00:33:57;;;;;;;8.20;7.10;;;;;;;;;;5015219;28;20573;-72
2021/05/24 00:36:23;;;;;;;7.93;6.70;;;;;;;;;;5015489;28;20109;-73
2021/05/24 00:38:49;;;;;;;10.85;7.40;;;;;;;;;;5015489;28;20037;-75
2021/05/24 00:41:15;;;;;;;8.00;6.75;;;;;;;;;;5016081;28;20028;-72
2021/05/24 00:43:42;;;;;;;8.82;7.55;;;;;;;;;;5015698;28;20053;-72
2021/05/24 00:46:08;;;;;;;6.57;6.03;;;;;;;;;;5015435;28;20037;-73
2021/05/24 00:48:34;;;;;;;7.63;6.78;;;;;;;;;;5015968;28;20029;-72
2021/05/24 00:51:00;;;;;;;8.90;7.10;;;;;;;;;;5015773;28;20438;-72
2021/05/24 00:53:26;;;;;;;8.65;7.47;;;;;;;;;;5015528;28;20038;-72
2021/05/24 00:55:52;;;;;;;7.63;6.82;;;;;;;;;;5015390;28;20021;-72
2021/05/24 00:58:18;;;;;;;6.85;6.07;;;;;;;;;;5015354;28;20034;-72
2021/05/24 01:00:44;;;;;;;7.75;6.97;;;;;;;;;;5015804;28;20026;-72
2021/05/24 01:03:11;;;;;;;6.82;6.15;;;;;;;;;;5015687;28;20041;-72
2021/05/24 01:05:37;;;;;;;6.78;6.13;;;;;;;;;;5015491;28;20484;-72
2021/05/24 01:08:04;;;;;;;9.15;6.38;;;;;;;;;;5015182;28;20026;-74
2021/05/24 01:10:31;;;;;;;7.07;6.20;;;;;;;;;;5015414;28;20057;-72
2021/05/24 01:12:57;;;;;;;6.57;5.90;;;;;;;;;;5015187;28;20038;-72
2021/05/24 01:15:23;;;;;;;7.32;5.75;;;;;;;;;;5015609;28;20026;-72
2021/05/24 01:17:50;;;;;;;8.43;6.70;;;;;;;;;;5015355;28;20026;-72
2021/05/24 01:20:16;;;;;;;6.53;5.85;;;;;;;;;;5015201;28;20030;-72
2021/05/24 01:22:49;;;;;;;10.23;6.53;;;;;;;;;;5015167;28;20059;-73
2021/05/24 01:25:15;;;;;;;7.07;6.18;;;;;;;;;;5015594;28;20065;-72
2021/05/24 01:27:41;;;;;;;7.03;5.93;;;;;;;;;;5015597;28;20105;-72
2021/05/24 01:30:07;;;;;;;9.48;6.47;;;;;;;;;;5015013;28;20026;-72
2021/05/24 01:32:33;;;;;;;6.57;5.78;;;;;;;;;;5015101;28;20034;-72
2021/05/24 01:34:59;;;;;;;7.03;6.03;;;;;;;;;;5014536;28;20105;-72
2021/05/24 01:37:25;;;;;;;6.53;5.38;;;;;;;;;;5014516;28;20026;-72
2021/05/24 01:39:51;;;;;;;7.85;5.60;;;;;;;;;;5014955;28;20091;-72
2021/05/24 01:42:17;;;;;;;5.68;5.18;;;;;;;;;;5014635;28;20029;-72
2021/05/24 01:44:44;;;;;;;5.35;4.85;;;;;;;;;;5014638;28;20033;-72
2021/05/24 01:47:10;;;;;;;7.18;6.13;;;;;;;;;;5014606;28;20026;-72
2021/05/24 01:49:36;;;;;;;5.53;4.97;;;;;;;;;;5014521;28;20491;-71
2021/05/24 01:52:04;;;;;;;5.35;4.85;;;;;;;;;;5014086;28;20022;-73
2021/05/24 01:54:30;;;;;;;5.30;4.80;;;;;;;;;;5014661;28;20053;-71
2021/05/24 01:56:56;;;;;;;5.50;4.97;;;;;;;;;;5014587;28;20499;-72
2021/05/24 01:59:22;;;;;;;11.52;5.82;;;;;;;;;;5014906;28;20365;-72
2021/05/24 02:01:48;;;;;;;6.35;5.55;;;;;;;;;;5014565;28;20452;-71
2021/05/24 02:04:15;;;;;;;5.43;4.93;;;;;;;;;;5013797;28;20403;-72
2021/05/24 02:06:41;;;;;;;5.63;4.75;;;;;;;;;;5014255;28;20033;-72
2021/05/24 02:09:07;;;;;;;7.65;5.18;;;;;;;;;;5014483;28;20423;-72
2021/05/24 02:11:33;;;;;;;5.75;5.25;;;;;;;;;;5014228;28;20042;-72
2021/05/24 02:13:59;;;;;;;7.03;5.57;;;;;;;;;;5013961;28;20038;-72
2021/05/24 02:16:29;;;;;;;4.60;4.20;;;;;;;;;;5013600;28;20031;-72
2021/05/24 02:18:55;;;;;;;4.93;4.38;;;;;;;;;;5014158;28;20038;-72
2021/05/24 02:21:21;;;;;;;6.10;5.50;;;;;;;;;;5014152;28;20022;-72
2021/05/24 02:23:47;;;;;;;4.82;4.43;;;;;;;;;;5014080;28;20057;-72
2021/05/24 02:26:13;;;;;;;5.28;4.78;;;;;;;;;;5014195;28;20026;-73
2021/05/24 02:28:39;;;;;;;5.38;4.75;;;;;;;;;;5014565;28;20566;-72
2021/05/24 02:31:05;;;;;;;6.93;4.60;;;;;;;;;;5014275;28;20018;-72
2021/05/24 02:33:31;;;;;;;4.55;4.15;;;;;;;;;;5014088;28;20030;-72
2021/05/24 02:35:59;;;;;;;4.38;3.97;;;;;;;;;;5013979;28;20026;-72
2021/05/24 02:38:25;;;;;;;4.70;4.30;;;;;;;;;;5014120;28;20064;-72
2021/05/24 02:40:51;;;;;;;5.43;4.93;;;;;;;;;;5014723;28;20022;-72
2021/05/24 02:43:17;;;;;;;4.72;4.32;;;;;;;;;;5014545;28;20225;-72
2021/05/24 02:45:45;;;;;;;4.60;4.20;;;;;;;;;;5014313;28;20490;-72
2021/05/24 02:48:11;;;;;;;4.35;3.95;;;;;;;;;;5017072;28;20026;-71
2021/05/24 02:50:37;;;;;;;5.57;4.15;;;;;;;;;;5017956;28;20018;-73
2021/05/24 02:53:03;;;;;;;5.20;4.53;;;;;;;;;;5018372;28;20041;-72
2021/05/24 02:55:29;;;;;;;4.45;4.05;;;;;;;;;;5017839;28;20046;-71
2021/05/24 02:57:55;;;;;;;6.38;4.85;;;;;;;;;;5017828;28;20068;-72
2021/05/24 03:00:22;;;;;;;5.85;3.72;;;;;;;;;;5017374;28;20029;-72
2021/05/24 03:02:49;;;;;;;4.07;3.70;;;;;;;;;;5017628;28;20026;-72
2021/05/24 03:05:16;;;;;;;4.82;3.92;;;;;;;;;;5017551;28;20463;-72
2021/05/24 03:07:42;;;;;;;4.22;3.92;;;;;;;;;;5017668;28;20024;-72
2021/05/24 03:10:09;;;;;;;9.55;4.60;;;;;;;;;;5016615;28;20022;-72
2021/05/24 03:12:35;;;;;;;6.50;4.07;;;;;;;;;;5017046;28;20029;-72
2021/05/24 03:15:01;;;;;;;4.85;4.28;;;;;;;;;;5017293;28;20022;-72
2021/05/24 03:17:27;;;;;;;76.05;33.00;;;;;;;;;;5017652;28;20077;-72
2021/05/24 03:19:53;;;;;;;66.10;29.67;;;;;;;;;;5016886;28;20029;-72
2021/05/24 03:22:19;;;;;;;45.78;21.63;;;;;;;;;;5016668;28;20034;-71
2021/05/24 03:24:45;;;;;;;23.15;14.25;;;;;;;;;;5017348;28;20018;-72
2021/05/24 03:27:11;;;;;;;22.30;14.82;;;;;;;;;;5017462;28;20372;-72
2021/05/24 03:29:37;;;;;;;20.10;13.05;;;;;;;;;;5017314;28;20181;-72
2021/05/24 03:32:03;;;;;;;25.15;12.95;;;;;;;;;;5016986;28;20080;-73
2021/05/24 03:34:29;;;;;;;20.63;12.07;;;;;;;;;;5016706;28;20022;-73
2021/05/24 03:36:55;;;;;;;18.75;11.68;;;;;;;;;;5017622;28;20037;-72
2021/05/24 03:39:21;;;;;;;24.55;12.55;;;;;;;;;;5016947;28;20108;-72
2021/05/24 03:41:47;;;;;;;18.30;10.70;;;;;;;;;;5017179;28;20026;-72
2021/05/24 03:44:14;;;;;;;20.63;11.45;;;;;;;;;;5016763;28;20030;-72
2021/05/24 03:46:40;;;;;;;17.77;9.90;;;;;;;;;;5017189;28;20026;-72
2021/05/24 03:49:06;;;;;;;18.33;9.45;;;;;;;;;;5016862;28;20506;-72
2021/05/24 03:51:32;;;;;;;15.27;10.10;;;;;;;;;;5017284;28;20026;-72
2021/05/24 03:53:58;;;;;;;21.02;11.40;;;;;;;;;;5016830;28;20048;-72
2021/05/24 03:56:24;;;;;;;15.90;9.20;;;;;;;;;;5016612;28;20022;-72
2021/05/24 03:58:51;;;;;;;12.77;9.73;;;;;;;;;;5016398;28;20091;-72
2021/05/24 04:01:17;;;;;;;15.68;9.52;;;;;;;;;;5016511;28;20030;-71
2021/05/24 04:03:44;;;;;;;14.00;8.25;;;;;;;;;;5015868;28;20036;-72
2021/05/24 04:06:14;;;;;;;14.80;8.32;;;;;;;;;;5016323;28;20111;-72
2021/05/24 04:08:43;;;;;;;11.50;8.40;;;;;;;;;;5016410;28;20033;-72
2021/05/24 04:11:10;;;;;;;13.75;8.30;;;;;;;;;;5016211;28;20034;-72
2021/05/24 04:13:36;;;;;;;13.23;8.45;;;;;;;;;;5016353;28;20073;-72
2021/05/24 04:16:02;;;;;;;11.77;8.23;;;;;;;;;;5015841;28;20368;-72
2021/05/24 04:18:31;;;;;;;12.88;7.95;;;;;;;;;;5016076;28;20026;-73
2021/05/24 04:20:58;;;;;;;16.95;7.97;;;;;;;;;;5016607;28;20029;-72
2021/05/24 04:23:24;;;;;;;16.35;7.93;;;;;;;;;;5016184;28;20033;-72
2021/05/24 04:25:50;;;;;;;14.82;7.25;;;;;;;;;;5016081;28;20077;-72
2021/05/24 04:28:16;;;;;;;12.13;7.30;;;;;;;;;;5015994;28;20030;-72
2021/05/24 04:30:42;;;;;;;8.70;5.72;;;;;;;;;;5014729;28;20053;-72
2021/05/24 04:33:08;;;;;;;12.05;7.13;;;;;;;;;;5014984;28;20088;-71
2021/05/24 04:35:35;;;;;;;9.05;6.82;;;;;;;;;;5015938;28;20022;-71
2021/05/24 04:38:01;;;;;;;9.77;6.78;;;;;;;;;;5015670;28;20463;-72
2021/05/24 04:40:27;;;;;;;8.50;6.55;;;;;;;;;;5015358;28;20500;-72
2021/05/24 04:42:54;;;;;;;11.50;6.30;;;;;;;;;;5015218;28;20034;-72
2021/05/24 04:45:20;;;;;;;14.90;6.50;;;;;;;;;;5015572;28;20456;-71
2021/05/24 04:47:46;;;;;;;6.95;5.57;;;;;;;;;;5015386;28;20030;-70
2021/05/24 04:50:12;;;;;;;8.93;5.60;;;;;;;;;;5015410;28;20061;-72
2021/05/24 04:52:38;;;;;;;8.50;6.47;;;;;;;;;;5015443;28;20069;-72
2021/05/24 04:55:05;;;;;;;13.07;6.32;;;;;;;;;;5015088;28;20026;-72
2021/05/24 04:57:31;;;;;;;12.75;5.97;;;;;;;;;;5014888;28;20030;-71
2021/05/24 04:59:57;;;;;;;10.32;5.07;;;;;;;;;;5015442;28;20026;-72
2021/05/24 05:02:23;;;;;;;9.27;5.47;;;;;;;;;;5014593;28;20053;-72
2021/05/24 05:04:49;;;;;;;11.02;5.68;;;;;;;;;;5014817;28;20499;-71
2021/05/24 05:07:15;;;;;;;6.93;5.43;;;;;;;;;;5015210;28;20119;-72
2021/05/24 05:09:41;;;;;;;6.50;5.53;;;;;;;;;;5013891;28;20037;-70
2021/05/24 05:12:07;;;;;;;7.57;5.38;;;;;;;;;;5014549;28;20026;-72
2021/05/24 05:14:33;;;;;;;13.35;5.78;;;;;;;;;;5014687;28;20398;-71
2021/05/24 05:17:00;;;;;;;8.65;5.03;;;;;;;;;;5014600;28;20030;-71
2021/05/24 05:19:26;;;;;;;7.50;4.43;;;;;;;;;;5014879;28;20092;-72
2021/05/24 05:21:52;;;;;;;8.30;4.38;;;;;;;;;;5014155;28;20436;-72
2021/05/24 05:24:18;;;;;;;7.72;4.63;;;;;;;;;;5014492;28;20033;-72
2021/05/24 05:26:45;;;;;;;8.63;3.97;;;;;;;;;;5014145;28;20057;-72
2021/05/24 05:29:11;;;;;;;7.35;4.20;;;;;;;;;;5014639;28;20041;-71
2021/05/24 05:31:37;;;;;;;10.32;4.93;;;;;;;;;;5014738;28;20050;-71
2021/05/24 05:34:04;;;;;;;15.35;5.38;;;;;;;;;;5014403;28;20045;-73
2021/05/24 05:36:30;;;;;;;12.70;4.20;;;;;;;;;;5014662;28;20040;-73
2021/05/24 05:38:56;;;;;;;12.93;5.07;;;;;;;;;;5015200;28;20069;-72
2021/05/24 05:41:22;;;;;;;7.43;4.53;;;;;;;;;;5014199;28;20030;-71
2021/05/24 05:43:48;;;;;;;14.70;4.40;;;;;;;;;;5014057;28;20083;-71
2021/05/24 05:46:14;;;;;;;6.55;3.42;;;;;;;;;;5013608;28;20384;-72
2021/05/24 05:48:40;;;;;;;7.10;4.53;;;;;;;;;;5013808;28;20037;-70
2021/05/24 05:51:07;;;;;;;4.15;3.67;;;;;;;;;;5014121;28;20515;-72
2021/05/24 05:53:34;;;;;;;5.47;3.80;;;;;;;;;;5013506;28;20353;-72
2021/05/24 05:56:00;;;;;;;4.60;3.60;;;;;;;;;;5012826;28;20017;-72
2021/05/24 05:58:26;;;;;;;7.15;3.88;;;;;;;;;;5012723;28;20381;-73
2021/05/24 06:00:52;;;;;;;5.15;3.72;;;;;;;;;;5011860;28;20025;-75
2021/05/24 06:03:18;;;;;;;5.32;3.70;;;;;;;;;;5012661;28;20088;-72
2021/05/24 06:05:44;;;;;;;5.30;3.72;;;;;;;;;;5012194;28;20057;-74
2021/05/24 06:08:10;;;;;;;4.03;3.33;;;;;;;;;;5012264;28;20025;-72
2021/05/24 06:10:36;;;;;;;6.63;3.58;;;;;;;;;;5011945;28;20044;-72
2021/05/24 06:13:02;;;;;;;7.40;3.88;;;;;;;;;;5012664;28;20034;-71
2021/05/24 06:15:28;;;;;;;4.53;4.03;;;;;;;;;;5013744;28;20026;-73
2021/05/24 06:17:54;;;;;;;5.57;4.03;;;;;;;;;;5014047;28;20026;-71
2021/05/24 06:20:21;;;;;;;6.65;3.22;;;;;;;;;;5012862;28;20375;-71
2021/05/24 06:22:47;;;;;;;12.75;3.42;;;;;;;;;;5013680;28;20117;-72
2021/05/24 06:25:13;;;;;;;5.03;3.20;;;;;;;;;;5013930;28;20030;-71
2021/05/24 06:27:39;;;;;;;5.10;3.15;;;;;;;;;;5013570;28;20529;-71
2021/05/24 06:30:06;;;;;;;4.20;3.13;;;;;;;;;;5013333;28;20030;-72
2021/05/24 06:32:32;;;;;;;4.38;3.60;;;;;;;;;;5013657;28;20092;-72
2021/05/24 06:34:58;;;;;;;6.25;2.97;;;;;;;;;;5014367;28;20041;-71
2021/05/24 06:37:25;;;;;;;5.80;2.97;;;;;;;;;;5013950;28;20040;-72
2021/05/24 06:39:51;;;;;;;5.13;3.67;;;;;;;;;;5013765;28;20018;-71
2021/05/24 06:42:17;;;;;;;3.85;2.72;;;;;;;;;;5013434;28;20029;-71
2021/05/24 06:44:43;;;;;;;4.88;2.60;;;;;;;;;;5012980;28;20030;-71
2021/05/24 06:47:09;;;;;;;4.68;2.67;;;;;;;;;;5013161;28;20480;-71
2021/05/24 06:49:35;;;;;;;8.23;3.33;;;;;;;;;;5013378;28;20028;-69
2021/05/24 06:52:02;;;;;;;5.72;3.65;;;;;;;;;;5013155;28;20110;-70
2021/05/24 06:54:28;;;;;;;8.27;3.47;;;;;;;;;;5013402;28;20030;-71
2021/05/24 06:56:54;;;;;;;21.75;3.70;;;;;;;;;;5009992;28;20033;-68
2021/05/24 06:59:20;;;;;;;6.43;3.20;;;;;;;;;;5012383;28;20037;-69
2021/05/24 07:01:47;;;;;;;3.70;2.70;;;;;;;;;;5012082;28;20049;-68
2021/05/24 07:04:13;;;;;;;5.63;3.15;;;;;;;;;;5013264;28;20172;-69
2021/05/24 07:06:39;;;;;;;3.22;2.55;;;;;;;;;;5013516;28;20026;-68
2021/05/24 07:09:05;;;;;;;4.10;3.15;;;;;;;;;;5012950;28;20495;-68
2021/05/24 07:11:31;;;;;;;5.45;2.88;;;;;;;;;;5012951;28;20345;-68
2021/05/24 07:13:57;;;;;;;4.68;3.20;;;;;;;;;;5010316;28;20037;-68
2021/05/24 07:16:23;;;;;;;4.93;2.47;;;;;;;;;;5013282;28;20110;-70
2021/05/24 07:18:49;;;;;;;4.45;3.10;;;;;;;;;;5014089;28;20131;-70
2021/05/24 07:21:16;;;;;;;4.22;2.33;;;;;;;;;;5014341;28;20026;-70
2021/05/24 07:23:42;;;;;;;10.57;2.95;;;;;;;;;;5011522;28;20034;-68
2021/05/24 07:26:08;;;;;;;5.20;3.35;;;;;;;;;;5013562;28;20120;-68
2021/05/24 07:28:34;;;;;;;80.88;32.70;;;;;;;;;;5013248;28;20113;-67
2021/05/24 07:31:00;;;;;;;39.13;15.77;;;;;;;;;;5012122;28;20034;-66
2021/05/24 07:33:26;;;;;;;29.95;12.75;;;;;;;;;;5011994;28;20052;-66
2021/05/24 07:35:53;;;;;;;30.58;11.00;;;;;;;;;;5016594;28;20026;-66
2021/05/24 07:38:19;;;;;;;23.92;12.35;;;;;;;;;;5016366;28;20026;-64
2021/05/24 07:40:45;;;;;;;23.80;9.90;;;;;;;;;;5016238;28;20029;-66
2021/05/24 07:43:11;;;;;;;28.75;12.55;;;;;;;;;;5014287;28;20026;-70
2021/05/24 07:45:38;;;;;;;22.15;10.30;;;;;;;;;;5015197;28;20036;-65
2021/05/24 07:48:04;;;;;;;19.63;9.63;;;;;;;;;;5015128;28;20022;-68
2021/05/24 07:50:30;;;;;;;99.85;28.48;;;;;;;;;;5015122;28;20379;-66
2021/05/24 07:52:56;;;;;;;52.47;20.52;;;;;;;;;;5012465;28;20107;-64
2021/05/24 07:55:22;;;;;;;222.70;76.70;;;;;;;;;;5014779;28;20033;-65
2021/05/24 07:57:48;;;;;;;129.57;47.45;;;;;;;;;;5015048;28;20053;-66
2021/05/24 08:00:16;;;;;;;129.70;43.58;;;;;;;;;;5014880;28;20112;-66
2021/05/24 08:02:42;;;;;;;97.03;38.97;;;;;;;;;;5011921;28;20468;-68
2021/05/24 08:05:11;;;;;;;94.60;34.05;;;;;;;;;;5001884;28;20050;-67
2021/05/24 08:07:37;;;;;;;94.22;32.63;;;;;;;;;;5014027;28;20033;-66
2021/05/24 08:10:03;;;;;;;96.25;35.15;;;;;;;;;;5013642;28;20026;-70
2021/05/24 08:12:29;;;;;;;83.13;31.40;;;;;;;;;;5012349;28;20445;-69
2021/05/24 08:14:55;;;;;;;75.00;27.35;;;;;;;;;;5012841;28;20022;-67
2021/05/24 08:17:21;;;;;;;59.75;24.77;;;;;;;;;;5010598;28;20030;-66
2021/05/24 08:19:47;;;;;;;65.18;25.40;;;;;;;;;;5014984;28;20030;-65
2021/05/24 08:22:13;;;;;;;66.53;21.13;;;;;;;;;;5013712;28;20496;-65
2021/05/24 08:24:40;;;;;;;62.28;22.70;;;;;;;;;;5014431;28;20030;-67
2021/05/24 08:27:06;;;;;;;50.10;20.00;;;;;;;;;;5015171;28;20022;-66
2021/05/24 08:29:32;;;;;;;50.25;21.80;;;;;;;;;;5014100;28;20041;-65
2021/05/24 08:31:58;;;;;;;57.55;21.13;;;;;;;;;;5014984;28;20030;-65
2021/05/24 08:34:24;;;;;;;55.22;18.33;;;;;;;;;;5015493;28;20038;-67
2021/05/24 08:36:50;;;;;;;42.80;18.77;;;;;;;;;;5014948;28;20030;-65
2021/05/24 08:39:16;;;;;;;44.22;18.17;;;;;;;;;;5015360;28;20026;-66
2021/05/24 08:41:42;;;;;;;43.70;16.65;;;;;;;;;;5014965;28;20120;-67
2021/05/24 08:44:09;;;;;;;28.02;11.63;;;;;;;;;;5014705;28;20034;-66
2021/05/24 08:46:36;;;;;;;19.90;7.45;;;;;;;;;;5014926;28;20029;-67
2021/05/24 08:49:02;;;;;;;11.68;6.75;;;;;;;;;;5013612;28;20030;-66
2021/05/24 08:51:28;;;;;;;9.07;6.22;;;;;;;;;;5015189;28;20030;-66
2021/05/24 08:53:54;;;;;;;15.25;7.35;;;;;;;;;;5013672;28;20045;-66
2021/05/24 08:56:20;;;;;;;39.85;8.88;;;;;;;;;;5014138;28;20037;-67
2021/05/24 08:58:46;;;;;;;12.75;7.07;;;;;;;;;;5014822;28;20038;-68
2021/05/24 09:01:12;;;;;;;15.32;7.00;;;;;;;;;;5013998;28;20026;-65
2021/05/24 09:03:41;;;;;;;19.25;8.23;;;;;;;;;;5014660;28;20040;-65
2021/05/24 09:06:09;;;;;;;14.07;7.38;;;;;;;;;;5014076;28;20435;-66
2021/05/24 09:08:37;;;;;;;14.57;7.45;;;;;;;;;;5013456;28;20529;-67
2021/05/24 09:11:03;;;;;;;12.10;7.00;;;;;;;;;;5010001;28;20125;-66
2021/05/24 09:13:31;;;;;;;9.30;6.05;;;;;;;;;;5013026;28;20037;-66
2021/05/24 09:15:57;;;;;;;14.27;7.47;;;;;;;;;;5014255;28;20018;-66
2021/05/24 09:18:23;;;;;;;13.90;6.38;;;;;;;;;;5012889;28;20567;-67
2021/05/24 09:20:50;;;;;;;9.50;5.95;;;;;;;;;;5013456;28;20033;-66
2021/05/24 09:23:24;;;;;;;9.85;5.80;;;;;;;;;;5014106;28;20025;-66
2021/05/24 09:26:06;;;;;;;8.15;5.88;;;;;;;;;;5014078;28;20033;-66
2021/05/24 09:28:34;;;;;;;10.27;6.22;;;;;;;;;;5010927;28;20164;-66
2021/05/24 09:31:06;;;;;;;12.48;6.70;;;;;;;;;;5013156;28;20076;-65
2021/05/24 09:33:32;;;;;;;9.25;6.13;;;;;;;;;;5014554;28;20037;-68
2021/05/24 09:35:58;;;;;;;11.15;5.28;;;;;;;;;;5013448;28;20026;-67
2021/05/24 09:38:24;;;;;;;9.77;5.80;;;;;;;;;;5011456;28;20535;-66
2021/05/24 09:40:51;;;;;;;10.60;5.80;;;;;;;;;;5012546;28;20026;-67
2021/05/24 09:43:17;;;;;;;10.75;5.55;;;;;;;;;;5011756;28;20464;-64
2021/05/24 09:45:44;;;;;;;8.95;5.25;;;;;;;;;;5009673;28;20028;-65
2021/05/24 09:48:10;;;;;;;12.18;5.15;;;;;;;;;;5013291;28;20472;-65
2021/05/24 09:50:36;;;;;;;8.38;5.07;;;;;;;;;;5011657;28;20022;-65
2021/05/24 09:53:02;;;;;;;10.48;6.63;;;;;;;;;;5013388;28;20076;-65
2021/05/24 09:55:29;;;;;;;13.57;5.60;;;;;;;;;;5012527;28;20038;-65
2021/05/24 09:57:56;;;;;;;10.13;5.90;;;;;;;;;;5014139;28;20079;-66
2021/05/24 10:00:24;;;;;;;10.18;5.60;;;;;;;;;;5011113;28;20030;-65
2021/05/24 10:02:52;;;;;;;8.75;5.13;;;;;;;;;;5013506;28;20367;-69
2021/05/24 10:05:18;;;;;;;6.15;4.65;;;;;;;;;;5012913;28;20054;-68
2021/05/24 10:07:44;;;;;;;10.60;5.47;;;;;;;;;;5011750;28;20105;-66
2021/05/24 10:10:11;;;;;;;16.02;5.55;;;;;;;;;;5011092;28;20502;-66
2021/05/24 10:12:37;;;;;;;7.90;5.53;;;;;;;;;;5012603;28;20029;-66
2021/05/24 10:15:04;;;;;;;15.25;5.65;;;;;;;;;;5013342;28;20076;-67
2021/05/24 10:17:31;;;;;;;10.93;5.60;;;;;;;;;;5013415;28;20379;-67
2021/05/24 10:19:58;;;;;;;10.23;5.22;;;;;;;;;;5011335;28;20049;-67
2021/05/24 10:22:24;;;;;;;8.98;4.57;;;;;;;;;;5013266;28;20088;-66
2021/05/24 10:24:50;;;;;;;7.50;4.78;;;;;;;;;;5013552;28;20049;-66
2021/05/24 10:27:16;;;;;;;9.60;4.13;;;;;;;;;;5013140;28;20033;-67
2021/05/24 10:29:42;;;;;;;10.00;4.72;;;;;;;;;;5010909;28;20391;-67
2021/05/24 10:32:09;;;;;;;5.60;4.20;;;;;;;;;;5012477;28;20080;-67
2021/05/24 10:34:36;;;;;;;5.30;3.03;;;;;;;;;;5013042;28;20121;-66
2021/05/24 10:37:18;;;;;;;9.13;3.47;;;;;;;;;;5012246;28;20077;-67
2021/05/24 10:39:44;;;;;;;;;;;;;;;;;;5009477;28;20030;-66
2021/05/24 10:42:13;;;;;;;16.42;3.70;;;;;;;;;;5010629;28;19959;-66
2021/05/24 10:44:40;;;;;;;5.40;3.60;;;;;;;;;;5012769;28;20025;-67
2021/05/24 10:47:27;;;;;;;8.63;3.45;;;;;;;;;;5011652;28;20449;-67
2021/05/24 10:50:05;;;;;;;6.65;3.30;;;;;;;;;;4994438;28;20045;-70
2021/05/24 10:52:32;;;;;;;4.47;3.28;;;;;;;;;;5010945;28;20030;-69
2021/05/24 10:54:58;;;;;;;8.68;3.22;;;;;;;;;;5011744;28;20419;-69
2021/05/24 10:57:24;;;;;;;11.07;3.38;;;;;;;;;;5012258;28;20022;-69
2021/05/24 10:59:51;;;;;;;4.32;2.42;;;;;;;;;;5010189;28;20570;-66
2021/05/24 11:02:26;;;;;;;6.38;3.20;;;;;;;;;;5012753;28;20460;-66
2021/05/24 11:04:55;;;;;;;4.60;2.60;;;;;;;;;;5013727;28;20053;-67
2021/05/24 11:07:30;;;;;;;5.75;2.15;;;;;;;;;;5013194;28;20539;-67
2021/05/24 11:10:16;;;;;;;4.10;2.75;;;;;;;;;;5014900;28;20514;-67
2021/05/24 11:12:43;;;;;;;6.50;1.98;;;;;;;;;;5003653;28;20037;-66
2021/05/24 11:15:11;;;;;;;15.10;2.55;;;;;;;;;;5016825;28;20026;-67
2021/05/24 11:17:57;;;;;;;3.10;2.10;;;;;;;;;;5017178;28;20034;-68
2021/05/24 11:20:32;;;;;;;4.00;1.92;;;;;;;;;;5000462;28;20398;-67
2021/05/24 11:23:28;;;;;;;14.35;2.33;;;;;;;;;;5016933;28;20034;-67
2021/05/24 11:26:14;;;;;;;5.70;2.25;;;;;;;;;;5003073;28;20463;-67
2021/05/24 11:28:41;;;;;;;5.45;2.58;;;;;;;;;;4998988;28;20554;-67
2021/05/24 11:31:23;;;;;;;7.03;2.70;;;;;;;;;;5015384;28;20479;-67
2021/05/24 11:33:54;;;;;;;3.83;2.38;;;;;;;;;;5013278;28;20046;-66
2021/05/24 11:36:40;;;;;;;11.63;2.22;;;;;;;;;;5013128;28;20018;-67
2021/05/24 11:39:12;;;;;;;3.70;2.33;;;;;;;;;;4999183;28;20026;-67
2021/05/24 11:41:51;;;;;;;5.47;1.90;;;;;;;;;;5015270;28;20037;-69
2021/05/24 11:44:17;;;;;;;6.15;2.22;;;;;;;;;;5012712;28;20372;-67
2021/05/24 11:46:45;;;;;;;11.57;2.88;;;;;;;;;;5015253;28;20057;-67
2021/05/24 11:49:12;;;;;;;4.32;2.22;;;;;;;;;;5012833;28;20032;-68
2021/05/24 11:51:38;;;;;;;2.28;2.08;;;;;;;;;;5015066;28;20018;-67
2021/05/24 11:54:05;;;;;;;2.40;1.90;;;;;;;;;;5015268;28;20033;-69
2021/05/24 11:56:39;;;;;;;13.40;2.67;;;;;;;;;;5015391;28;20380;-66
2021/05/24 11:59:05;;;;;;;3.45;1.70;;;;;;;;;;5013754;28;20546;-67
2021/05/24 12:01:31;;;;;;;3.55;1.95;;;;;;;;;;5014149;28;20026;-65
2021/05/24 12:03:57;;;;;;;1.83;1.73;;;;;;;;;;5013801;28;20127;-66
2021/05/24 12:06:24;;;;;;;4.72;1.73;;;;;;;;;;5014415;28;21295;-66
2021/05/24 12:08:50;;;;;;;4.68;1.95;;;;;;;;;;5006439;28;20022;-67
2021/05/24 12:11:16;;;;;;;3.15;2.05;;;;;;;;;;5013810;28;20064;-66
2021/05/24 12:14:02;;;;;;;3.42;2.08;;;;;;;;;;5013976;28;20041;-69
2021/05/24 12:16:29;;;;;;;5.72;1.67;;;;;;;;;;4999634;28;20160;-67
2021/05/24 12:18:57;;;;;;;2.47;1.92;;;;;;;;;;5011551;28;20025;-67
2021/05/24 12:21:36;;;;;;;3.92;1.95;;;;;;;;;;5013898;28;20476;-70
2021/05/24 12:24:03;;;;;;;2.45;1.70;;;;;;;;;;5014112;28;20037;-68
2021/05/24 12:26:29;;;;;;;6.97;2.17;;;;;;;;;;5015526;28;20088;-67
2021/05/24 12:28:56;;;;;;;2.25;1.75;;;;;;;;;;5014248;28;20449;-67
2021/05/24 12:31:22;;;;;;;6.78;2.00;;;;;;;;;;5015908;28;20021;-68
2021/05/24 12:33:48;;;;;;;6.80;2.28;;;;;;;;;;5013782;28;20038;-68
2021/05/24 12:36:19;;;;;;;4.07;1.50;;;;;;;;;;5013629;28;20084;-68
2021/05/24 12:38:47;;;;;;;6.07;2.10;;;;;;;;;;5011921;28;20113;-68
2021/05/24 12:41:15;;;;;;;2.72;1.80;;;;;;;;;;5013845;28;20022;-67
2021/05/24 12:43:58;;;;;;;4.25;1.85;;;;;;;;;;5013844;28;20029;-68
2021/05/24 12:46:24;;;;;;;3.40;2.17;;;;;;;;;;5012175;28;20038;-69
2021/05/24 12:48:52;;;;;;;3.72;1.92;;;;;;;;;;5011198;28;20029;-67
2021/05/24 12:51:20;;;;;;;1.80;1.70;;;;;;;;;;5013395;28;20060;-65
2021/05/24 12:53:54;;;;;;;1.80;1.58;;;;;;;;;;5012272;28;20084;-67
2021/05/24 12:56:21;;;;;;;3.28;1.70;;;;;;;;;;5012785;28;20022;-67
2021/05/24 12:58:47;;;;;;;2.60;1.83;;;;;;;;;;5010961;28;20029;-67
2021/05/24 13:01:13;;;;;;;2.38;1.90;;;;;;;;;;5012555;28;20029;-67
2021/05/24 13:03:42;;;;;;;5.97;2.10;;;;;;;;;;5012558;28;20032;-67
2021/05/24 13:06:10;;;;;;;3.20;1.98;;;;;;;;;;5012791;28;20072;-67
2021/05/24 13:08:46;;;;;;;3.83;1.80;;;;;;;;;;5010697;28;20639;-67
2021/05/24 13:11:12;;;;;;;6.03;2.13;;;;;;;;;;5010365;28;20022;-68
2021/05/24 13:13:39;;;;;;;1.55;1.45;;;;;;;;;;5013066;28;20425;-68
2021/05/24 13:16:17;;;;;;;1.90;1.73;;;;;;;;;;5012281;28;20124;-67
2021/05/24 13:19:02;;;;;;;2.38;1.73;;;;;;;;;;5010769;28;20053;-68
2021/05/24 13:21:46;;;;;;;2.85;2.40;;;;;;;;;;5012122;28;20025;-67
2021/05/24 13:24:32;;;;;;;6.15;2.28;;;;;;;;;;5010109;28;20086;-70
2021/05/24 13:27:33;;;;;;;2.25;1.75;;;;;;;;;;4997168;28;20030;-68
2021/05/24 13:29:51;;;;;;;5.35;2.17;;;;;;;;;;4997181;28;20049;-67
2021/05/24 13:32:25;;;;;;;2.90;1.98;;;;;;;;;;5013839;28;20026;-67
2021/05/24 13:34:51;;;;;;;8.82;2.10;;;;;;;;;;5014382;28;20093;-68
2021/05/24 13:37:17;;;;;;;2.95;1.92;;;;;;;;;;5014015;28;20113;-68
2021/05/24 13:39:43;;;;;;;21.13;2.58;;;;;;;;;;5012058;28;20018;-67
2021/05/24 13:42:09;;;;;;;7.55;2.00;;;;;;;;;;5013725;28;20084;-67
2021/05/24 13:44:37;;;;;;;5.25;2.00;;;;;;;;;;5014285;28;20022;-67
2021/05/24 13:47:04;;;;;;;3.03;1.60;;;;;;;;;;5013308;28;20027;-68
2021/05/24 13:49:32;;;;;;;1.95;1.60;;;;;;;;;;5012217;28;20033;-67
2021/05/24 13:51:58;;;;;;;3.88;2.28;;;;;;;;;;5012225;28;20025;-68
2021/05/24 13:54:24;;;;;;;3.22;2.20;;;;;;;;;;5012936;28;20107;-68
2021/05/24 13:56:51;;;;;;;2.47;1.90;;;;;;;;;;5012308;28;20101;-68
2021/05/24 13:59:17;;;;;;;19.40;2.30;;;;;;;;;;5012726;28;20109;-66
2021/05/24 14:01:43;;;;;;;3.72;1.85;;;;;;;;;;5013684;28;20030;-66
2021/05/24 14:04:09;;;;;;;2.03;1.77;;;;;;;;;;5013633;28;20491;-65
2021/05/24 14:06:36;;;;;;;2.67;2.00;;;;;;;;;;5013565;28;20056;-67
2021/05/24 14:09:03;;;;;;;4.38;2.15;;;;;;;;;;5011939;28;20029;-67
2021/05/24 14:11:29;;;;;;;6.90;1.73;;;;;;;;;;5013798;28;20475;-66
2021/05/24 14:13:55;;;;;;;3.15;1.83;;;;;;;;;;5013574;28;20030;-67
2021/05/24 14:16:22;;;;;;;4.55;2.15;;;;;;;;;;5013020;28;20057;-68
2021/05/24 14:18:48;;;;;;;6.75;1.77;;;;;;;;;;5011779;28;20034;-68
2021/05/24 14:21:15;;;;;;;3.05;1.75;;;;;;;;;;5012863;28;20671;-68
2021/05/24 14:23:41;;;;;;;4.22;1.85;;;;;;;;;;5013132;28;20026;-68
2021/05/24 14:26:07;;;;;;;12.52;2.13;;;;;;;;;;5013090;28;20033;-67
2021/05/24 14:28:33;;;;;;;7.97;1.98;;;;;;;;;;5009772;28;20575;-69
2021/05/24 14:31:02;;;;;;;3.83;1.70;;;;;;;;;;5011584;28;20026;-69
2021/05/24 14:33:28;;;;;;;2.30;1.90;;;;;;;;;;5011492;28;20105;-67
2021/05/24 14:35:55;;;;;;;4.15;1.63;;;;;;;;;;5012640;28;20527;-67
2021/05/24 14:38:21;;;;;;;3.20;2.15;;;;;;;;;;5010955;28;20488;-68
2021/05/24 14:40:47;;;;;;;4.93;1.63;;;;;;;;;;5012926;28;20029;-67